Meteo Giornale » Osservazioni meteo Stati Uniti (USA) » Bullhead City Laughlin
ore: 12:47 - Osservazioni Meteo Bullhead City Laughlin
Lat. 35° 9' N Lon. 114° 33' W Alt. 212 metri s.l.m.
37 °C
Poco Nuvoloso
Temp. 24 Ore
28 °C
40 °C
Sud/Sud-Est
42.6 Km/h
Dew point 15 °C
Umidità 27 %
Visibilità 10 Km
Il sole sorge alle ore 06:11
Il sole tramonta alle ore 19:05
| Data e Ora | Cielo e Fenomeni | T °C | DP °C | Um. % | Pres. hPa | Vis. km | Vento km/h | |
|---|---|---|---|---|---|---|---|---|
| Oggi h: 12:47 | Poco Nuvoloso | 37 | 15 | 27 | 1010 | 10 | S/SE 42.6 | |
| Oggi h: 11:47 | Poco Nuvoloso | 35 | 17 | 34 | 1011 | 10 | S/SE 16.7 | |
| Oggi h: 10:47 | Poco Nuvoloso | 35 | 17 | 34 | 1011 | 10 | S 37 | |
| Oggi h: 09:53 | Sereno | 33 | 17 | 38 | 1011 | 10 | S 33.3 | |
| Oggi h: 08:47 | Poco Nuvoloso | 33 | 16 | 36 | 1011 | 10 | S 35.2 | |
| Oggi h: 07:49 | Sereno | 30 | 17 | 45 | 1011 | 10 | S 18.5 | |
| Oggi h: 07:45 | Sereno | 30 | 17 | 45 | 1011 | 10 | SO 14.8 | |
| Oggi h: 07:35 | Sereno | 30 | 17 | 45 | 1011 | 10 | SO 11.1 | |
| Oggi h: 07:15 | Sereno | 29 | 17 | 48 | 1011 | 10 | N 0 | |
| Oggi h: 06:50 | Sereno | 28 | 17 | 51 | 1011 | 10 | N 0 | |
| Oggi h: 06:35 | Sereno | 28 | 17 | 51 | 1011 | 10 | N 0 | |
| Oggi h: 06:15 | Poco Nuvoloso | 28 | 17 | 51 | 1010 | 10 | N 0 | |
| Oggi h: 05:50 | Poco Nuvoloso | 28 | 17 | 51 | 1010 | 10 | N 0 | |
| Oggi h: 05:35 | Nuvoloso | 28 | 17 | 51 | 1010 | 10 | N 0 | |
| Oggi h: 05:15 | Nuvoloso | 28 | 17 | 51 | 1010 | 10 | N 0 | |
| Oggi h: 04:50 | Nuvoloso | 29 | 17 | 48 | 1010 | 10 | N 0 | |
| Oggi h: 04:35 | Molto Nuvoloso | 29 | 17 | 48 | 1010 | 10 | SO 7.4 | |
| Oggi h: 04:15 | Molto Nuvoloso | 29 | 17 | 48 | 1010 | 10 | SO 7.4 | |
| Oggi h: 03:50 | Coperto | 30 | 17 | 45 | 1010 | 10 | SO 7.4 | |
| Oggi h: 03:35 | Coperto | 30 | 17 | 45 | 1010 | 10 | SO 11.1 | |
| Oggi h: 03:15 | Molto Nuvoloso | 30 | 17 | 45 | 1010 | 10 | SO 13 | |
| Oggi h: 02:50 | Sereno | 31 | 16 | 40 | 1010 | 10 | SO 14.8 | |
| Oggi h: 02:35 | Poco Nuvoloso | 31 | 16 | 40 | 1010 | 10 | SO 16.7 | |
| Oggi h: 02:15 | Nuvoloso | 30 | 17 | 45 | 1010 | 10 | SO 14.8 | |
| Oggi h: 01:50 | Poco Nuvoloso | 30 | 17 | 45 | 1010 | 10 | SO 9.3 | |
| Oggi h: 01:35 | Poco Nuvoloso | 30 | 17 | 45 | 1010 | 10 | SO 9.3 | |
| Oggi h: 01:10 | Nuvoloso | 31 | 17 | 43 | 1010 | 10 | SO 16.7 | |
| Oggi h: 00:55 | Poco Nuvoloso | 31 | 17 | 43 | 1010 | 10 | SO 18.5 | |
| Oggi h: 00:35 | Sereno | 31 | 17 | 43 | 1010 | 10 | SO 13 | |
| Oggi h: 00:15 | Sereno | 31 | 17 | 43 | 1010 | 10 | SO 13 | |
| Ieri h: 23:55 | Sereno | 32 | 17 | 40 | 1009 | 10 | SO 18.5 | |
| Ieri h: 23:35 | Sereno | 32 | 16 | 38 | 1009 | 10 | SO 14.8 | |
| Ieri h: 23:10 | Sereno | 32 | 16 | 38 | 1009 | 10 | O/SO 18.5 | |
| Ieri h: 22:55 | Sereno | 32 | 15 | 35 | 1009 | 10 | O/SO 18.5 | |
| Ieri h: 22:35 | Sereno | 33 | 15 | 33 | 1009 | 10 | SO 14.8 | |
| Ieri h: 22:10 | Sereno | 33 | 15 | 33 | 1009 | 10 | S/SO 18.5 | |
| Ieri h: 21:50 | Sereno | 33 | 16 | 36 | 1009 | 10 | S 18.5 | |
| Ieri h: 21:35 | Sereno | 34 | 17 | 36 | 1009 | 10 | S 27.8 | |
| Ieri h: 21:15 | Sereno | 34 | 16 | 34 | 1008 | 10 | S 27.8 | |
| Ieri h: 20:55 | Sereno | 34 | 16 | 34 | 1008 | 10 | S/SO 22.2 | |
| Ieri h: 20:35 | Sereno | 34 | 15 | 32 | 1008 | 10 | S/SO 20.3 | |
| Ieri h: 20:10 | Sereno | 34 | 16 | 34 | 1007 | 10 | S/SO 24 | |
| Ieri h: 19:55 | Sereno | 35 | 16 | 32 | 1007 | 10 | S/SO 25.9 | |
| Ieri h: 19:35 | Sereno | 36 | 14 | 26 | 1007 | 10 | S/SO 24 | |
| Ieri h: 19:10 | Sereno | 36 | 15 | 28 | 1006 | 10 | S 31.5 | |
| Ieri h: 18:55 | Sereno | 37 | 15 | 27 | 1006 | 10 | S 44.4 | |
| Ieri h: 18:35 | Sereno | 37 | 15 | 27 | 1005 | 10 | S/SE 46.3 | |
| Ieri h: 18:10 | Sereno | 38 | 15 | 25 | 1006 | 10 | S 33.3 | |
| Ieri h: 17:55 | Sereno | 38 | 14 | 24 | 1006 | 10 | S 40.7 | |
| Ieri h: 16:47 | Nuvoloso | 39 | 16 | 26 | 1006 | 10 | S/SE 35.2 | |
| Ieri h: 15:50 | Nuvoloso | 40 | 13 | 20 | 1006 | 10 | S/SE 31.5 | |
| Ieri h: 14:47 | Sereno | 40 | 15 | 23 | 1007 | 10 | S/SE 44.4 | |
| Ieri h: 13:47 | Nuvoloso | 39 | 14 | 22 | 1008 | 10 | SE 33.3 | |



